Time;durP1;ratioP1;P1;durP2;ratioP2;P2;SDS_P1;SDS_P2;PMS_P1;PMS_P2;Temp;Humidity;BMP_temperature;BMP_pressure;BME280_temperature;BME280_humidity;BME280_pressure;Samples;Min_cycle;Max_cycle;Signal;HPM_P1;HPM_P2
2022/01/18 00:00:46;;;;;;;40.40;13.02;;;;;;;6.89;82.46;101652.25;5001023;28;20038;-70
2022/01/18 00:03:12;;;;;;;32.88;13.30;;;;;;;6.89;82.30;101657.50;5003223;28;20034;-70
2022/01/18 00:05:37;;;;;;;42.78;16.30;;;;;;;6.86;82.85;101662.75;5003849;28;20088;-71
2022/01/18 00:08:03;;;;;;;33.08;14.82;;;;;;;6.84;83.14;101662.78;5004960;28;20061;-70
2022/01/18 00:10:32;;;;;;;34.55;16.30;;;;;;;6.82;82.95;101664.53;5003584;28;20048;-69
2022/01/18 00:20:42;;;;;;;44.88;14.65;;;;;;;6.82;83.42;101661.91;5007026;28;20077;-71
2022/01/18 00:23:09;;;;;;;29.75;13.80;;;;;;;6.86;83.07;101654.91;5006605;28;20100;-71
2022/01/18 00:25:37;;;;;;;41.35;13.40;;;;;;;6.87;82.96;101654.03;5008997;28;20060;-71
2022/01/18 00:28:04;;;;;;;29.63;14.05;;;;;;;6.88;82.66;101653.16;5011311;28;20044;-71
2022/01/18 00:33:19;;;;;;;26.40;11.60;;;;;;;6.89;82.70;101657.50;5007870;28;20041;-71
2022/01/18 00:35:46;;;;;;;23.95;11.43;;;;;;;6.93;82.35;101661.00;5011763;28;20049;-71
2022/01/18 00:38:27;;;;;;;34.28;14.48;;;;;;;6.92;82.38;101656.63;5010228;28;20030;-71
2022/01/18 00:40:52;;;;;;;30.23;13.77;;;;;;;6.88;82.26;101658.38;5011091;28;20038;-71
2022/01/18 00:43:18;;;;;;;31.75;13.15;;;;;;;6.87;82.36;101664.53;5011510;28;20123;-71
2022/01/18 00:45:44;;;;;;;40.72;11.90;;;;;;;6.87;82.88;101664.53;5013442;28;20042;-72
2022/01/18 00:48:09;;;;;;;35.55;14.13;;;;;;;6.90;82.31;101666.25;5012409;28;20041;-71
2022/01/18 00:50:35;;;;;;;27.20;13.18;;;;;;;6.90;82.56;101661.88;5012688;28;20412;-71
2022/01/18 00:53:05;;;;;;;29.67;13.18;;;;;;;6.88;82.22;101671.50;5013371;28;20056;-71
2022/01/18 00:55:34;;;;;;;26.00;12.40;;;;;;;6.85;82.52;101661.03;5012773;28;20046;-71
2022/01/18 00:58:00;;;;;;;35.95;14.15;;;;;;;6.85;82.84;101672.38;5010198;28;20422;-71
2022/01/18 01:00:25;;;;;;;36.03;15.38;;;;;;;6.84;82.65;101670.66;5009747;28;20042;-72
2022/01/18 01:02:50;;;;;;;38.08;14.77;;;;;;;6.85;82.80;101674.13;5010335;28;20030;-71
2022/01/18 01:05:16;;;;;;;40.65;17.02;;;;;;;6.82;82.80;101674.16;5011176;28;20384;-72
2022/01/18 01:07:41;;;;;;;31.50;13.55;;;;;;;6.82;82.85;101687.25;5011794;28;20037;-71
2022/01/18 01:10:07;;;;;;;28.58;12.07;;;;;;;6.84;83.18;101682.84;5011143;28;20034;-72
2022/01/18 01:12:32;;;;;;;33.47;15.57;;;;;;;6.85;83.11;101684.63;5010133;28;20045;-72
2022/01/18 01:15:05;;;;;;;30.65;15.98;;;;;;;6.87;82.81;101688.97;5010922;28;20526;-72
2022/01/18 01:17:45;;;;;;;40.63;14.60;;;;;;;6.91;82.78;101678.47;5009504;28;20034;-72
2022/01/18 01:37:02;;;;;;;51.42;17.42;;;;;;;6.79;84.14;101682.00;4991196;28;20530;-72
2022/01/18 01:42:25;;;;;;;48.05;16.90;;;;;;;6.75;84.20;101691.63;5008591;28;20084;-72
2022/01/18 01:44:51;;;;;;;24.05;14.60;;;;;;;6.72;84.78;101696.00;5002424;28;20109;-72
2022/01/18 01:47:20;;;;;;;40.83;17.75;;;;;;;6.71;84.89;101699.50;4990376;28;20030;-72
2022/01/18 01:49:49;;;;;;;43.60;17.85;;;;;;;6.72;84.94;101698.63;4990934;28;20121;-71
2022/01/18 01:52:15;;;;;;;45.47;17.65;;;;;;;6.69;84.94;101696.03;4988686;28;20085;-72
2022/01/18 01:54:41;;;;;;;32.63;19.50;;;;;;;6.72;85.42;101699.53;4990584;28;20031;-72
2022/01/18 01:57:07;;;;;;;44.72;19.02;;;;;;;6.73;84.84;101701.25;4990778;28;20518;-72
2022/01/18 01:59:33;;;;;;;50.00;20.98;;;;;;;6.70;84.99;101697.78;4990779;28;20042;-72
2022/01/18 02:01:59;;;;;;;37.75;18.73;;;;;;;6.69;85.04;101690.78;4955723;28;20049;-72
2022/01/18 02:04:24;;;;;;;31.83;17.35;;;;;;;6.71;85.63;101689.91;4989238;28;20057;-72
2022/01/18 02:06:50;;;;;;;46.95;21.00;;;;;;;6.69;85.23;101685.53;4989955;28;20038;-72
2022/01/18 02:09:15;;;;;;;54.47;20.83;;;;;;;6.69;85.12;101680.28;4990142;28;20093;-72
2022/01/18 02:11:41;;;;;;;36.53;18.33;;;;;;;6.69;85.26;101682.91;4989860;28;20042;-72
2022/01/18 02:14:11;;;;;;;44.13;20.30;;;;;;;6.71;85.50;101689.91;4990254;28;20523;-72
2022/01/18 02:22:05;;;;;;;56.47;21.75;;;;;;;6.58;85.73;101683.81;5008976;28;20045;-72
2022/01/18 02:24:31;;;;;;;64.68;23.85;;;;;;;6.56;85.63;101679.47;5009518;28;20038;-72
2022/01/18 02:26:56;;;;;;;58.65;22.48;;;;;;;6.56;85.73;101674.22;5009454;28;20053;-72
2022/01/18 02:29:22;;;;;;;46.47;20.75;;;;;;;6.56;85.64;101671.59;5009957;28;20033;-73
2022/01/18 02:31:47;;;;;;;38.00;18.73;;;;;;;6.54;86.02;101674.22;5007131;28;20109;-73
2022/01/18 02:34:16;;;;;;;54.80;20.83;;;;;;;6.58;85.49;101672.47;5009462;28;20484;-72
2022/01/18 02:36:42;;;;;;;46.97;17.90;;;;;;;6.58;85.88;101670.72;5008070;28;20410;-72
2022/01/18 02:39:08;;;;;;;75.35;23.98;;;;;;;6.58;85.63;101669.84;5008421;28;20044;-72
2022/01/18 02:41:35;;;;;;;62.00;22.90;;;;;;;6.55;85.46;101669.88;5008637;28;20053;-72
2022/01/18 02:44:06;;;;;;;48.33;21.38;;;;;;;6.55;85.73;101668.09;5009273;28;20034;-72
2022/01/18 02:46:31;;;;;;;64.03;22.48;;;;;;;6.52;85.68;101673.38;5009756;28;20041;-72
2022/01/18 02:48:59;;;;;;;51.40;22.05;;;;;;;6.53;85.73;101677.72;5009656;28;20041;-72
2022/01/18 02:51:25;;;;;;;57.65;20.27;;;;;;;6.54;85.61;101684.69;5008905;28;20037;-72
2022/01/18 02:53:57;;;;;;;34.78;17.25;;;;;;;6.60;86.03;101675.97;5009042;28;20042;-72
2022/01/18 02:56:24;;;;;;;48.35;19.33;;;;;;;6.66;85.64;101674.19;5009118;28;20096;-72
2022/01/18 02:58:50;;;;;;;39.60;16.38;;;;;;;6.70;85.58;101677.69;5009239;28;20396;-72
2022/01/18 03:04:00;;;;;;;42.03;16.40;;;;;;;6.70;84.92;101669.81;5008307;28;20108;-71
2022/01/18 03:06:25;;;;;;;34.45;16.00;;;;;;;6.72;84.59;101665.44;5008787;28;20470;-72
2022/01/18 03:08:50;;;;;;;37.42;16.75;;;;;;;6.75;84.44;101664.56;5008022;28;20030;-72
2022/01/18 03:11:16;;;;;;;52.97;19.10;;;;;;;6.73;84.06;101669.81;5006616;28;20030;-72
2022/01/18 03:13:41;;;;;;;67.03;20.30;;;;;;;6.69;84.31;101661.94;5008851;28;20030;-72
2022/01/18 03:16:06;;;;;;;40.22;18.23;;;;;;;6.66;84.60;101660.22;5008892;28;20105;-72
2022/01/18 03:18:32;;;;;;;41.45;17.52;;;;;;;6.66;84.77;101673.31;5008892;28;20120;-72
2022/01/18 03:20:57;;;;;;;45.47;20.00;;;;;;;6.63;84.50;101666.34;5007811;28;20034;-72
2022/01/18 03:23:23;;;;;;;34.90;17.55;;;;;;;6.60;84.47;101678.59;5009160;28;20503;-72
2022/01/18 03:25:55;;;;;;;48.17;21.50;;;;;;;6.61;84.47;101680.31;5008103;28;20054;-72
2022/01/18 03:28:22;;;;;;;63.05;22.55;;;;;;;6.63;84.65;101679.44;5008192;28;20723;-71
2022/01/18 03:30:53;;;;;;;47.42;19.77;;;;;;;6.64;84.52;101675.06;5008044;28;20041;-72
2022/01/18 03:33:20;;;;;;;45.45;19.70;;;;;;;6.62;84.44;101682.94;5008709;28;20042;-72
2022/01/18 03:35:47;;;;;;;45.00;19.50;;;;;;;6.66;84.71;101689.03;5008378;28;20052;-72
2022/01/18 03:38:14;;;;;;;45.63;21.40;;;;;;;6.64;84.40;101680.31;4989616;28;20034;-72
2022/01/18 03:40:39;;;;;;;54.05;23.50;;;;;;;6.59;84.66;101687.31;4988390;28;20042;-72
2022/01/18 03:43:08;;;;;;;42.13;20.73;;;;;;;6.59;84.53;101687.31;5008151;28;20045;-72
2022/01/18 03:45:43;;;;;;;40.67;17.23;;;;;;;6.63;85.00;101682.06;5012465;28;20092;-72
2022/01/18 03:48:23;;;;;;;44.88;21.55;;;;;;;6.63;84.85;101678.56;5011100;28;20041;-72
2022/01/18 03:50:48;;;;;;;57.10;24.85;;;;;;;6.59;84.39;101687.31;5011568;28;20036;-72
2022/01/18 03:53:13;;;;;;;59.95;25.85;;;;;;;6.59;84.74;101692.53;5012014;28;20026;-72
2022/01/18 03:55:39;;;;;;;45.70;21.35;;;;;;;6.57;84.65;101689.94;5011942;28;20128;-72
2022/01/18 03:58:04;;;;;;;63.88;25.23;;;;;;;6.55;84.84;101693.44;5012440;28;20037;-73
2022/01/18 04:00:29;;;;;;;58.15;25.10;;;;;;;6.53;84.95;101689.94;5011886;28;20065;-72
2022/01/18 04:02:56;;;;;;;41.70;22.83;;;;;;;6.51;85.27;101682.09;5012162;28;20046;-71
2022/01/18 04:05:22;;;;;;;65.75;28.38;;;;;;;6.47;84.98;101682.94;5011923;28;20038;-72
2022/01/18 04:07:47;;;;;;;65.53;24.80;;;;;;;6.49;85.29;101689.06;5012032;28;20550;-71
2022/01/18 04:10:13;;;;;;;67.85;27.48;;;;;;;6.51;85.32;101687.31;5011142;28;20681;-71
2022/01/18 04:12:39;;;;;;;57.60;24.58;;;;;;;6.55;85.28;101696.94;5009716;28;20096;-71
2022/01/18 04:15:10;;;;;;;69.85;26.45;;;;;;;6.52;84.96;101696.06;5011879;28;20045;-72
2022/01/18 04:30:44;;;;;;;62.90;28.33;;;;;;;6.38;85.47;101702.19;5010840;28;20026;-72
2022/01/18 04:33:09;;;;;;;66.32;27.75;;;;;;;6.36;85.43;101698.69;5011248;28;20026;-72
2022/01/18 04:35:34;;;;;;;58.80;26.13;;;;;;;6.33;85.60;101690.84;5011313;28;20053;-72
2022/01/18 04:38:00;;;;;;;81.85;29.65;;;;;;;6.32;85.68;101696.06;5011681;28;20030;-72
2022/01/18 04:40:29;;;;;;;49.92;22.75;;;;;;;6.33;85.88;101687.38;5010040;28;20487;-73
2022/01/18 04:48:25;;;;;;;47.22;22.05;;;;;;;6.40;85.62;101686.50;5011401;28;20427;-73
2022/01/18 04:50:51;;;;;;;77.15;27.52;;;;;;;6.37;85.36;101689.94;5010950;28;20056;-72
2022/01/18 04:53:17;;;;;;;73.43;29.25;;;;;;;6.36;85.38;101690.84;5011099;28;20045;-73
2022/01/18 04:55:43;;;;;;;42.00;19.60;;;;;;;6.38;85.76;101688.22;5010493;28;20041;-73
2022/01/18 04:58:08;;;;;;;53.00;25.50;;;;;;;6.43;85.51;101694.34;5009976;28;20042;-73
2022/01/18 05:00:35;;;;;;;42.83;21.52;;;;;;;6.45;85.54;101690.84;5010977;28;20041;-73
2022/01/18 05:03:00;;;;;;;63.45;26.08;;;;;;;6.49;84.84;101702.16;5011142;28;20041;-73
2022/01/18 05:05:31;;;;;;;44.63;20.48;;;;;;;6.49;85.11;101703.94;5011628;28;20041;-73
2022/01/18 05:08:04;;;;;;;40.58;20.67;;;;;;;6.50;84.95;101708.28;5006992;28;20113;-73
2022/01/18 05:10:30;;;;;;;56.47;22.20;;;;;;;6.47;84.31;101705.66;4994049;28;20570;-74
2022/01/18 05:12:57;;;;;;;56.53;23.48;;;;;;;6.41;84.82;101712.66;4991805;28;20129;-73
2022/01/18 05:21:09;;;;;;;59.20;27.73;;;;;;;6.40;84.58;101710.94;5011141;28;20049;-72
2022/01/18 05:23:35;;;;;;;54.58;26.75;;;;;;;6.40;84.57;101707.44;5010508;28;20105;-72
2022/01/18 05:26:00;;;;;;;53.00;23.67;;;;;;;6.40;84.64;101710.94;5010908;28;20033;-72
2022/01/18 05:28:26;;;;;;;53.72;25.65;;;;;;;6.38;85.08;101707.44;5010973;28;20409;-72
2022/01/18 05:30:51;;;;;;;56.17;26.58;;;;;;;6.35;84.75;101711.78;5009256;28;20068;-73
2022/01/18 05:33:18;;;;;;;60.67;26.88;;;;;;;6.34;85.18;101707.44;5010324;28;20045;-72
2022/01/18 05:35:44;;;;;;;60.20;27.00;;;;;;;6.34;85.13;101708.28;5010089;28;20042;-73
2022/01/18 05:38:09;;;;;;;56.63;26.67;;;;;;;6.36;84.96;101714.41;5010064;28;20411;-73
2022/01/18 05:40:36;;;;;;;65.45;28.35;;;;;;;6.32;84.83;101715.28;5009815;28;20121;-72
2022/01/18 05:43:01;;;;;;;49.67;24.95;;;;;;;6.33;85.09;101711.81;5010156;28;20038;-72
2022/01/18 05:45:26;;;;;;;49.58;22.58;;;;;;;6.35;84.93;101719.66;5010541;28;20041;-72
2022/01/18 05:47:52;;;;;;;59.95;22.95;;;;;;;6.35;84.67;101715.31;4994946;28;20547;-72
2022/01/18 05:50:17;;;;;;;55.70;25.90;;;;;;;6.31;84.30;101710.94;5007870;28;20042;-71
2022/01/18 05:52:42;;;;;;;40.33;20.30;;;;;;;6.30;84.63;101711.81;5009595;28;20038;-72
2022/01/18 05:55:10;;;;;;;48.42;22.35;;;;;;;6.33;84.84;101719.66;5008993;28;20263;-72
2022/01/18 05:57:35;;;;;;;56.95;23.90;;;;;;;6.35;84.35;101719.66;5010027;28;20033;-71
2022/01/18 06:00:04;;;;;;;69.03;26.58;;;;;;;6.32;84.47;101724.88;5010243;28;20037;-72
2022/01/18 06:02:41;;;;;;;51.85;22.25;;;;;;;6.33;84.96;101726.66;5004843;28;20044;-70
2022/01/18 06:07:53;;;;;;;59.13;26.05;;;;;;;6.28;84.62;101731.03;5009401;28;20407;-70
2022/01/18 06:10:18;;;;;;;65.60;28.85;;;;;;;6.26;84.58;101736.25;5009543;28;20037;-71
2022/01/18 06:12:44;;;;;;;43.38;23.65;;;;;;;6.32;84.93;101732.75;5008976;28;20044;-71
2022/01/18 06:15:09;;;;;;;55.25;23.52;;;;;;;6.35;84.57;101737.97;5009461;28;20050;-71
2022/01/18 06:17:34;;;;;;;47.97;23.52;;;;;;;6.36;84.53;101737.13;5009789;28;20037;-70
2022/01/18 06:20:00;;;;;;;38.30;20.27;;;;;;;6.36;84.77;101740.59;5009695;28;20414;-71
2022/01/18 06:22:25;;;;;;;55.65;25.67;;;;;;;6.37;84.67;101739.72;5007270;28;20061;-71
2022/01/18 06:24:51;;;;;;;70.25;29.25;;;;;;;6.38;84.36;101744.09;5008852;28;20030;-71
2022/01/18 06:27:16;;;;;;;71.95;25.88;;;;;;;6.37;84.46;101738.84;5008721;28;20197;-72
2022/01/18 06:29:41;;;;;;;81.85;30.95;;;;;;;6.33;85.13;101735.38;5009313;28;20026;-71
2022/01/18 06:32:07;;;;;;;58.72;26.73;;;;;;;6.31;84.86;101733.63;5008191;28;20046;-71
2022/01/18 06:34:33;;;;;;;42.72;20.60;;;;;;;6.31;85.49;101739.75;5009156;28;20506;-72
2022/01/18 06:36:58;;;;;;;56.03;24.95;;;;;;;6.36;85.20;101739.75;5009816;28;20819;-72
2022/01/18 06:39:24;;;;;;;47.10;24.88;;;;;;;6.39;85.02;101748.47;5009060;28;20036;-71
2022/01/18 06:41:49;;;;;;;72.15;26.63;;;;;;;6.38;84.79;101745.88;5006477;28;20980;-71
2022/01/18 06:44:14;;;;;;;73.28;27.23;;;;;;;6.34;85.24;101744.97;5009307;28;20037;-71
2022/01/18 06:46:41;;;;;;;62.90;29.65;;;;;;;6.35;84.98;101744.13;5009048;28;20042;-71
2022/01/18 06:49:06;;;;;;;55.25;22.60;;;;;;;6.36;85.46;101743.22;5007837;28;20124;-71
2022/01/18 06:51:32;;;;;;;59.40;25.65;;;;;;;6.35;85.50;101745.84;5010123;28;20053;-72
2022/01/18 06:53:57;;;;;;;55.83;25.75;;;;;;;6.32;85.61;101745.84;5010173;28;20582;-72
2022/01/18 06:56:25;;;;;;;57.65;25.73;;;;;;;6.32;85.74;101745.84;5009387;28;20109;-72
2022/01/18 06:58:52;;;;;;;58.47;26.75;;;;;;;6.32;85.43;101741.47;5009239;28;20491;-71
2022/01/18 07:01:18;;;;;;;65.97;27.40;;;;;;;6.27;85.37;101739.75;5008069;28;20125;-71
2022/01/18 07:03:44;;;;;;;74.38;29.55;;;;;;;6.23;85.73;101742.38;5008362;28;20116;-71
2022/01/18 07:06:09;;;;;;;76.43;29.52;;;;;;;6.20;85.49;101742.38;5008056;28;20491;-71
2022/01/18 07:08:35;;;;;;;65.47;26.23;;;;;;;6.18;85.67;101738.00;5007498;28;20034;-70
2022/01/18 07:11:00;;;;;;;63.05;29.05;;;;;;;6.17;86.27;101744.97;5008353;28;20148;-70
2022/01/18 07:13:26;;;;;;;76.05;29.85;;;;;;;6.14;86.09;101747.59;5008752;28;20037;-70
2022/01/18 07:15:51;;;;;;;68.53;26.65;;;;;;;6.12;85.92;101746.72;5006274;28;20033;-71
2022/01/18 07:18:17;;;;;;;68.03;27.63;;;;;;;6.14;86.17;101751.97;5007159;28;20061;-71
2022/01/18 07:20:42;;;;;;;56.03;26.52;;;;;;;6.08;85.79;101751.94;5003575;28;20325;-71
2022/01/18 07:23:12;;;;;;;39.47;19.95;;;;;;;6.08;86.37;101750.22;5006844;28;20488;-71
2022/01/18 07:25:44;;;;;;;44.33;21.35;;;;;;;6.17;86.58;101757.19;4994756;28;20038;-71
2022/01/18 07:28:15;;;;;;;80.90;26.85;;;;;;;6.23;86.16;101758.06;4988883;28;20527;-71
2022/01/18 07:30:41;;;;;;;41.92;21.30;;;;;;;6.27;86.30;101751.09;4988127;28;20060;-71
2022/01/18 07:33:07;;;;;;;56.35;24.35;;;;;;;6.28;85.87;101747.59;4987079;28;20034;-71
2022/01/18 07:35:34;;;;;;;46.67;22.38;;;;;;;6.30;85.33;101750.22;4988331;28;20049;-71
2022/01/18 07:38:03;;;;;;;59.70;25.42;;;;;;;6.28;85.70;101744.13;4989287;28;20038;-71
2022/01/18 07:40:30;;;;;;;54.20;23.15;;;;;;;6.29;85.43;101745.84;4996212;28;20385;-72
2022/01/18 07:42:56;;;;;;;69.72;22.90;;;;;;;6.32;85.47;101745.84;5003300;28;20046;-73
2022/01/18 07:45:22;;;;;;;42.00;24.90;;;;;;;6.32;85.13;101748.47;5005923;28;20540;-72
2022/01/18 07:47:48;;;;;;;60.53;26.48;;;;;;;6.30;84.99;101752.81;4993335;28;20117;-72
2022/01/18 07:50:14;;;;;;;67.68;27.67;;;;;;;6.27;85.21;101750.22;4988527;28;20026;-72
2022/01/18 07:52:40;;;;;;;50.60;26.08;;;;;;;6.28;85.11;101760.72;4988133;28;20518;-71
2022/01/18 07:55:06;;;;;;;62.65;27.27;;;;;;;6.32;84.77;101753.69;4988664;28;20030;-70
2022/01/18 07:57:33;;;;;;;69.15;29.15;;;;;;;6.34;84.97;101763.31;4989063;28;20121;-70
2022/01/18 07:59:58;;;;;;;53.13;25.65;;;;;;;6.37;85.33;101762.44;4990257;28;20114;-70
2022/01/18 08:02:25;;;;;;;47.53;22.27;;;;;;;6.40;84.89;101751.97;5007985;28;20448;-72
2022/01/18 08:04:51;;;;;;;36.00;18.52;;;;;;;6.41;84.53;101757.19;5008174;28;20109;-71
2022/01/18 08:07:16;;;;;;;39.50;15.05;;;;;;;6.41;84.19;101762.44;5008347;28;20110;-71
2022/01/18 08:09:42;;;;;;;31.40;14.48;;;;;;;6.43;84.17;101765.06;5007637;28;20037;-71
2022/01/18 08:12:08;;;;;;;43.58;18.23;;;;;;;6.43;83.80;101762.44;5007529;28;20051;-70
2022/01/18 08:14:34;;;;;;;32.35;15.13;;;;;;;6.46;84.41;101759.81;5006442;28;20044;-70
2022/01/18 08:17:01;;;;;;;40.58;13.35;;;;;;;6.48;84.27;101755.47;5006573;28;20034;-70
2022/01/18 08:19:36;;;;;;;29.67;13.98;;;;;;;6.50;84.19;101761.56;5007659;28;20106;-70
2022/01/18 08:22:02;;;;;;;29.52;12.90;;;;;;;6.51;83.90;101760.69;5007182;28;20041;-70
2022/01/18 08:24:28;;;;;;;27.95;13.20;;;;;;;6.54;84.08;101765.06;5007423;28;20042;-71
2022/01/18 08:26:54;;;;;;;36.30;13.00;;;;;;;6.54;83.56;101760.69;5006462;28;20129;-70
2022/01/18 08:29:19;;;;;;;22.60;11.52;;;;;;;6.52;83.56;101754.59;5008683;28;20038;-70
2022/01/18 08:31:46;;;;;;;22.60;11.43;;;;;;;6.54;83.77;101762.44;5009633;28;20703;-70
2022/01/18 08:34:12;;;;;;;23.52;12.30;;;;;;;6.58;83.40;101762.44;5010086;28;20038;-71
2022/01/18 08:36:38;;;;;;;27.42;14.88;;;;;;;6.61;83.30;101761.56;5010464;28;20049;-71
2022/01/18 08:39:04;;;;;;;34.28;14.60;;;;;;;6.63;83.50;101767.69;5010727;28;20503;-70
2022/01/18 08:41:30;;;;;;;38.65;17.33;;;;;;;6.64;83.42;101761.53;5009585;28;20069;-71
2022/01/18 08:43:56;;;;;;;35.35;17.48;;;;;;;6.62;83.52;101764.19;5010573;28;20030;-71
2022/01/18 08:46:21;;;;;;;31.45;18.70;;;;;;;6.62;83.34;101764.19;5010190;28;20030;-71
2022/01/18 08:48:47;;;;;;;34.90;17.80;;;;;;;6.60;83.45;101762.44;5009840;28;20132;-71
2022/01/18 08:51:14;;;;;;;33.83;19.45;;;;;;;6.58;83.25;101765.06;5009329;28;20041;-71
2022/01/18 08:53:41;;;;;;;35.08;16.95;;;;;;;6.60;83.96;101768.56;5009412;28;20041;-71
2022/01/18 08:56:06;;;;;;;45.65;18.45;;;;;;;6.64;83.74;101769.41;5010203;28;20113;-71
2022/01/18 08:58:34;;;;;;;31.10;18.13;;;;;;;6.68;83.27;101771.16;5009572;28;20113;-71
2022/01/18 09:01:01;;;;;;;39.10;19.27;;;;;;;6.70;83.04;101771.16;5007636;28;20045;-72
2022/01/18 09:03:26;;;;;;;34.55;21.40;;;;;;;6.63;83.10;101760.69;5015877;28;20125;-71
2022/01/18 09:05:51;;;;;;;41.10;19.70;;;;;;;6.57;83.56;101763.31;5011059;28;20036;-71
2022/01/18 09:08:19;;;;;;;28.50;17.00;;;;;;;6.62;83.47;101768.53;5010970;28;20383;-71
2022/01/18 09:10:47;;;;;;;29.98;15.48;;;;;;;6.69;83.74;101779.88;5010326;28;20078;-70
2022/01/18 09:13:13;;;;;;;27.70;16.70;;;;;;;6.75;83.35;101777.28;5010984;28;20034;-70
2022/01/18 09:15:38;;;;;;;31.60;17.58;;;;;;;6.80;82.71;101771.13;5012634;28;20053;-71
2022/01/18 09:18:04;;;;;;;21.77;14.13;;;;;;;6.77;82.75;101770.25;5010777;28;20046;-71
2022/01/18 09:20:31;;;;;;;26.50;16.33;;;;;;;6.82;82.68;101776.41;5005831;28;20030;-71
2022/01/18 09:22:57;;;;;;;27.23;14.73;;;;;;;6.84;81.92;101782.47;4999978;28;20100;-70
2022/01/18 09:25:27;;;;;;;23.58;14.45;;;;;;;6.84;82.38;101782.47;5000172;28;20563;-71
2022/01/18 09:27:54;;;;;;;25.65;15.32;;;;;;;6.86;81.92;101786.84;5008977;28;20108;-70
2022/01/18 09:30:20;;;;;;;23.25;13.85;;;;;;;6.90;82.37;101785.09;5006083;28;20388;-70
2022/01/18 09:32:47;;;;;;;18.92;12.02;;;;;;;6.96;82.40;101787.69;5006009;28;20152;-71
2022/01/18 09:35:14;;;;;;;27.60;14.05;;;;;;;6.95;81.75;101791.22;5005436;28;20036;-70
2022/01/18 09:37:40;;;;;;;29.48;11.55;;;;;;;6.99;80.93;101786.81;5006754;28;20055;-70
2022/01/18 09:40:06;;;;;;;18.05;12.10;;;;;;;7.02;81.14;101790.31;5005698;28;20428;-70
2022/01/18 09:42:38;;;;;;;18.55;10.82;;;;;;;7.14;80.71;101789.44;5004701;28;20033;-70
2022/01/18 09:45:07;;;;;;;18.63;10.50;;;;;;;7.16;80.47;101784.16;5005420;28;20053;-71
2022/01/18 09:47:34;;;;;;;26.88;14.48;;;;;;;7.20;80.39;101785.91;5005756;28;20686;-71
2022/01/18 09:49:59;;;;;;;37.28;15.85;;;;;;;7.20;79.89;101792.03;5003398;28;20034;-71
2022/01/18 09:52:25;;;;;;;26.08;14.95;;;;;;;7.21;80.12;101799.03;5002080;28;20041;-72
2022/01/18 09:54:51;;;;;;;23.55;11.57;;;;;;;7.26;80.68;101799.00;5005169;28;20034;-71
2022/01/18 09:57:16;;;;;;;23.58;12.10;;;;;;;7.33;78.88;101803.34;5005153;28;20310;-72
2022/01/18 09:59:42;;;;;;;19.63;9.52;;;;;;;7.37;79.02;101806.84;5005112;28;20464;-71
2022/01/18 10:02:10;;;;;;;27.63;11.73;;;;;;;7.43;78.07;101799.84;5002123;28;20046;-71
2022/01/18 10:04:41;;;;;;;24.33;10.52;;;;;;;7.51;78.08;101790.16;5004543;28;20140;-70
2022/01/18 10:07:06;;;;;;;30.92;13.23;;;;;;;7.63;78.23;101797.13;5003566;28;20121;-71
2022/01/18 10:09:32;;;;;;;37.33;16.77;;;;;;;7.58;78.81;101791.03;4993059;28;20129;-71
2022/01/18 10:12:13;;;;;;;70.55;28.35;;;;;;;7.64;78.86;101784.84;4998788;28;20033;-70
2022/01/18 10:14:51;;;;;;;31.60;15.95;;;;;;;7.63;78.54;101790.97;4983012;28;20088;-69
2022/01/18 10:17:29;;;;;;;33.50;17.05;;;;;;;7.67;78.18;101790.09;4994416;28;20052;-72
2022/01/18 10:20:05;;;;;;;29.20;15.63;;;;;;;7.80;79.14;101789.16;5000727;28;20026;-72
2022/01/18 10:22:41;;;;;;;34.90;16.05;;;;;;;7.86;77.74;101789.09;5004066;28;20041;-73
2022/01/18 10:25:21;;;;;;;26.88;13.60;;;;;;;7.90;77.32;101784.69;4998858;28;20042;-71
2022/01/18 10:27:49;;;;;;;24.80;13.32;;;;;;;8.03;76.89;101791.63;4991397;28;20096;-71
2022/01/18 10:30:22;;;;;;;21.77;12.52;;;;;;;7.96;76.41;101782.91;5001697;28;20109;-72
2022/01/18 10:33:09;;;;;;;26.38;12.05;;;;;;;8.19;75.72;101781.88;5004442;28;20041;-71
2022/01/18 10:35:35;;;;;;;36.97;15.05;;;;;;;8.15;74.55;101781.03;5003772;28;20038;-72
2022/01/18 10:38:00;;;;;;;23.77;11.00;;;;;;;8.16;75.66;101777.53;5004361;28;20458;-72
2022/01/18 10:40:26;;;;;;;20.55;11.20;;;;;;;8.35;74.35;101773.00;4987321;28;21088;-72
2022/01/18 10:42:54;;;;;;;22.38;11.90;;;;;;;8.43;73.86;101780.00;5004022;28;20068;-70
2022/01/18 10:45:27;;;;;;;21.77;12.73;;;;;;;8.46;74.03;101772.06;5003232;28;20391;-71
2022/01/18 10:48:12;;;;;;;23.13;12.75;;;;;;;8.42;73.53;101767.72;5000097;28;20037;-72
2022/01/18 10:50:42;;;;;;;23.95;13.95;;;;;;;8.49;72.59;101769.41;4986446;28;20133;-71
2022/01/18 10:53:21;;;;;;;26.25;13.05;;;;;;;8.44;72.74;101772.09;5010919;28;20029;-71
2022/01/18 10:55:49;;;;;;;21.02;10.90;;;;;;;8.37;73.21;101773.88;5004176;28;20048;-71
2022/01/18 10:58:21;;;;;;;31.40;13.00;;;;;;;8.38;73.00;101757.19;4987989;28;20054;-71
2022/01/18 11:00:48;;;;;;;17.88;11.48;;;;;;;8.40;73.10;101769.50;4999015;28;20042;-70
2022/01/18 11:03:14;;;;;;;24.30;12.63;;;;;;;8.44;72.98;101763.31;5002950;28;20168;-69
2022/01/18 11:05:43;;;;;;;24.80;14.05;;;;;;;8.46;72.80;101761.56;5003172;28;20034;-71
2022/01/18 11:08:09;;;;;;;27.10;12.07;;;;;;;8.49;72.97;101756.28;4999556;28;20064;-71
2022/01/18 11:10:37;;;;;;;19.85;11.57;;;;;;;8.55;72.82;101756.22;4990808;28;20400;-71
2022/01/18 11:13:08;;;;;;;30.60;13.07;;;;;;;8.46;72.09;101746.66;4995872;28;20038;-70
2022/01/18 11:15:40;;;;;;;25.23;11.85;;;;;;;8.45;73.25;101750.19;4994641;28;20085;-72
2022/01/18 11:18:14;;;;;;;17.83;10.57;;;;;;;8.49;72.90;101740.50;4974523;28;20041;-71
2022/01/18 11:20:47;;;;;;;19.38;11.98;;;;;;;8.39;73.18;101742.31;4988613;28;20178;-70
2022/01/18 11:23:13;;;;;;;26.60;12.82;;;;;;;8.37;73.33;101734.44;4992078;28;20026;-70
2022/01/18 11:25:39;;;;;;;16.00;10.77;;;;;;;8.35;74.51;101743.22;5002087;28;20451;-70
2022/01/18 11:28:07;;;;;;;18.30;11.00;;;;;;;8.40;72.79;101732.72;5003801;28;20042;-70
2022/01/18 11:30:37;;;;;;;18.10;10.48;;;;;;;8.33;73.04;101726.59;5003219;28;20087;-70
2022/01/18 11:33:07;;;;;;;19.48;11.25;;;;;;;8.34;72.95;101730.97;5002871;28;20044;-71
2022/01/18 11:35:46;;;;;;;17.30;11.10;;;;;;;8.42;72.93;101720.41;4999032;28;20034;-70
2022/01/18 11:38:14;;;;;;;20.20;11.57;;;;;;;8.44;72.88;101724.78;4994553;28;20407;-71
2022/01/18 11:40:55;;;;;;;24.20;12.68;;;;;;;8.47;73.01;101721.25;4990808;28;20044;-72
2022/01/18 11:43:44;;;;;;;20.45;12.32;;;;;;;8.40;72.69;101719.56;4994238;28;20049;-71
2022/01/18 11:46:22;;;;;;;21.90;12.63;;;;;;;8.27;72.85;101722.28;5001110;28;20037;-72
2022/01/18 11:48:50;;;;;;;19.27;10.43;;;;;;;8.21;73.61;101717.06;4991003;28;20045;-71
2022/01/18 11:51:19;;;;;;;28.08;14.43;;;;;;;8.21;73.01;101724.06;5003095;28;20038;-71
2022/01/18 11:53:55;;;;;;;25.25;13.38;;;;;;;8.23;73.21;101719.69;5002651;28;20038;-71
2022/01/18 11:56:38;;;;;;;21.60;13.10;;;;;;;8.33;73.01;101711.69;5002778;28;20128;-71
2022/01/18 11:59:18;;;;;;;27.48;12.82;;;;;;;8.37;72.90;101718.69;5002823;28;20395;-71
2022/01/18 12:01:46;;;;;;;23.25;13.20;;;;;;;8.40;73.52;101712.56;5002654;28;20034;-71
2022/01/18 12:04:11;;;;;;;21.75;11.98;;;;;;;8.38;71.95;101712.53;5000573;28;20053;-70
2022/01/18 12:06:45;;;;;;;19.70;11.73;;;;;;;8.25;71.86;101705.66;5006565;28;20069;-71
2022/01/18 12:09:45;;;;;;;23.08;12.68;;;;;;;8.24;72.13;101713.53;4998554;28;20121;-72
2022/01/18 12:12:48;;;;;;;21.55;11.90;;;;;;;8.27;72.52;101709.16;4991360;28;20033;-72
2022/01/18 12:15:20;;;;;;;28.35;14.25;;;;;;;8.30;72.92;101703.84;5006088;28;20571;-71
2022/01/18 12:17:56;;;;;;;23.38;12.88;;;;;;;8.29;71.98;101695.97;5005077;28;20403;-71
2022/01/18 12:20:38;;;;;;;19.30;11.88;;;;;;;8.30;72.75;101693.34;5003861;28;20475;-71
2022/01/18 12:23:09;;;;;;;29.30;15.20;;;;;;;8.29;72.60;101691.56;5004079;28;20030;-70
2022/01/18 12:25:52;;;;;;;31.50;15.38;;;;;;;8.25;72.53;101692.50;5004290;28;20128;-70